VE-0108 weather

La Ladera Heliport
Delta Amacuro, Venezuela

Public forecast

Using degrees Celsius for public forecast. Weather courtesy of forecast.io.

METAR (pilot weather report)

Report is more than 6 hours old.

Closest report is MaturĂ­n Airport, 58.0 nm (107.4 km) WNW. Retrieved 2018/12/04 12:00 UTC (4 months ago):

SVMT 041200Z /////KT 9999 SCT010 BKN300 23/22 Q1011

TAF (pilot weather forecast)

Forecast is more than 12 hours old.

Closest forecast is Piarco International Airport, 96.4 nm (178.6 km) NE. Retrieved 2019/03/21 18:19 UTC (2 days ago):

TAF TTPP 211600Z 2118/2218 10012KT 9999 SCT025 BECMG 2123/2201 08005KT CAVOK